sensor_id;sensor_type;location;lat;lon;timestamp;P1;durP1;ratioP1;P2;durP2;ratioP2
10056;SDS011;5068;51.286;7.518;2023-11-21T00:01:02;5.97;;;3.30;;
10056;SDS011;5068;51.286;7.518;2023-11-21T00:02:35;6.32;;;3.05;;
10056;SDS011;5068;51.286;7.518;2023-11-21T00:04:09;7.13;;;2.92;;
10056;SDS011;5068;51.286;7.518;2023-11-21T00:05:42;11.25;;;3.65;;
10056;SDS011;5068;51.286;7.518;2023-11-21T00:07:16;5.03;;;2.67;;
10056;SDS011;5068;51.286;7.518;2023-11-21T00:08:48;4.82;;;2.97;;
10056;SDS011;5068;51.286;7.518;2023-11-21T00:10:23;6.80;;;2.95;;
10056;SDS011;5068;51.286;7.518;2023-11-21T00:11:55;7.93;;;3.40;;
10056;SDS011;5068;51.286;7.518;2023-11-21T00:13:30;7.25;;;3.20;;
10056;SDS011;5068;51.286;7.518;2023-11-21T00:15:03;7.82;;;2.78;;
10056;SDS011;5068;51.286;7.518;2023-11-21T00:16:40;5.05;;;2.72;;
10056;SDS011;5068;51.286;7.518;2023-11-21T00:18:14;7.22;;;3.17;;
10056;SDS011;5068;51.286;7.518;2023-11-21T00:19:46;9.05;;;3.38;;
10056;SDS011;5068;51.286;7.518;2023-11-21T00:21:20;7.03;;;4.07;;
10056;SDS011;5068;51.286;7.518;2023-11-21T00:22:52;12.02;;;3.83;;
10056;SDS011;5068;51.286;7.518;2023-11-21T00:24:25;8.80;;;4.07;;
10056;SDS011;5068;51.286;7.518;2023-11-21T00:25:59;6.10;;;3.63;;
10056;SDS011;5068;51.286;7.518;2023-11-21T00:27:32;7.28;;;3.97;;
10056;SDS011;5068;51.286;7.518;2023-11-21T00:29:04;7.57;;;3.83;;
10056;SDS011;5068;51.286;7.518;2023-11-21T00:30:39;8.00;;;3.53;;
10056;SDS011;5068;51.286;7.518;2023-11-21T00:32:11;16.23;;;3.80;;
10056;SDS011;5068;51.286;7.518;2023-11-21T00:33:45;9.77;;;4.25;;
10056;SDS011;5068;51.286;7.518;2023-11-21T00:35:17;9.85;;;3.78;;
10056;SDS011;5068;51.286;7.518;2023-11-21T00:36:52;7.47;;;3.63;;
10056;SDS011;5068;51.286;7.518;2023-11-21T00:38:25;6.43;;;3.75;;
10056;SDS011;5068;51.286;7.518;2023-11-21T00:39:58;5.63;;;3.58;;
10056;SDS011;5068;51.286;7.518;2023-11-21T00:41:33;8.15;;;3.50;;
10056;SDS011;5068;51.286;7.518;2023-11-21T00:43:07;7.93;;;4.15;;
10056;SDS011;5068;51.286;7.518;2023-11-21T00:44:40;7.28;;;3.92;;
10056;SDS011;5068;51.286;7.518;2023-11-21T00:46:13;6.28;;;3.80;;
10056;SDS011;5068;51.286;7.518;2023-11-21T00:47:46;7.45;;;3.75;;
10056;SDS011;5068;51.286;7.518;2023-11-21T00:49:19;8.48;;;4.60;;
10056;SDS011;5068;51.286;7.518;2023-11-21T00:50:53;9.30;;;3.80;;
10056;SDS011;5068;51.286;7.518;2023-11-21T00:52:27;8.65;;;3.95;;
10056;SDS011;5068;51.286;7.518;2023-11-21T00:54:00;7.85;;;4.22;;
10056;SDS011;5068;51.286;7.518;2023-11-21T00:55:33;8.50;;;3.90;;
10056;SDS011;5068;51.286;7.518;2023-11-21T00:57:07;10.43;;;4.10;;
10056;SDS011;5068;51.286;7.518;2023-11-21T00:58:42;10.55;;;4.53;;
10056;SDS011;5068;51.286;7.518;2023-11-21T01:00:18;7.72;;;4.30;;
10056;SDS011;5068;51.286;7.518;2023-11-21T01:01:51;7.88;;;4.20;;
10056;SDS011;5068;51.286;7.518;2023-11-21T01:03:25;9.38;;;4.65;;
10056;SDS011;5068;51.286;7.518;2023-11-21T01:04:59;7.97;;;4.22;;
10056;SDS011;5068;51.286;7.518;2023-11-21T01:06:32;8.25;;;3.97;;
10056;SDS011;5068;51.286;7.518;2023-11-21T01:08:04;10.10;;;4.18;;
10056;SDS011;5068;51.286;7.518;2023-11-21T01:09:38;9.00;;;4.72;;
10056;SDS011;5068;51.286;7.518;2023-11-21T01:11:10;8.63;;;4.85;;
10056;SDS011;5068;51.286;7.518;2023-11-21T01:12:45;8.90;;;4.43;;
10056;SDS011;5068;51.286;7.518;2023-11-21T01:14:18;9.27;;;4.30;;
10056;SDS011;5068;51.286;7.518;2023-11-21T01:15:51;7.65;;;4.07;;
10056;SDS011;5068;51.286;7.518;2023-11-21T01:17:24;10.85;;;4.10;;
10056;SDS011;5068;51.286;7.518;2023-11-21T01:18:57;8.20;;;3.97;;
10056;SDS011;5068;51.286;7.518;2023-11-21T01:20:30;7.10;;;3.92;;
10056;SDS011;5068;51.286;7.518;2023-11-21T01:22:03;7.03;;;3.63;;
10056;SDS011;5068;51.286;7.518;2023-11-21T01:23:36;7.72;;;3.75;;
10056;SDS011;5068;51.286;7.518;2023-11-21T01:25:10;8.88;;;3.85;;
10056;SDS011;5068;51.286;7.518;2023-11-21T01:26:46;7.32;;;4.03;;
10056;SDS011;5068;51.286;7.518;2023-11-21T01:28:20;11.27;;;4.38;;
10056;SDS011;5068;51.286;7.518;2023-11-21T01:29:53;6.63;;;3.88;;
10056;SDS011;5068;51.286;7.518;2023-11-21T01:31:26;8.65;;;4.07;;
10056;SDS011;5068;51.286;7.518;2023-11-21T01:34:34;6.22;;;3.20;;
10056;SDS011;5068;51.286;7.518;2023-11-21T01:36:08;5.47;;;3.50;;
10056;SDS011;5068;51.286;7.518;2023-11-21T01:37:41;6.40;;;3.63;;
10056;SDS011;5068;51.286;7.518;2023-11-21T01:39:15;7.40;;;3.55;;
10056;SDS011;5068;51.286;7.518;2023-11-21T01:42:23;8.13;;;3.40;;
10056;SDS011;5068;51.286;7.518;2023-11-21T01:43:56;7.18;;;3.58;;
10056;SDS011;5068;51.286;7.518;2023-11-21T01:45:30;7.07;;;3.65;;
10056;SDS011;5068;51.286;7.518;2023-11-21T01:47:02;6.95;;;4.05;;
10056;SDS011;5068;51.286;7.518;2023-11-21T01:48:36;7.85;;;4.22;;
10056;SDS011;5068;51.286;7.518;2023-11-21T01:50:11;6.15;;;3.95;;
10056;SDS011;5068;51.286;7.518;2023-11-21T01:51:49;7.15;;;3.95;;
10056;SDS011;5068;51.286;7.518;2023-11-21T01:53:23;6.43;;;4.05;;
10056;SDS011;5068;51.286;7.518;2023-11-21T01:54:58;6.65;;;3.65;;
10056;SDS011;5068;51.286;7.518;2023-11-21T01:56:33;7.35;;;3.90;;
10056;SDS011;5068;51.286;7.518;2023-11-21T01:58:06;7.63;;;3.97;;
10056;SDS011;5068;51.286;7.518;2023-11-21T01:59:41;6.03;;;3.50;;
10056;SDS011;5068;51.286;7.518;2023-11-21T02:01:16;8.02;;;4.03;;
10056;SDS011;5068;51.286;7.518;2023-11-21T02:02:50;6.50;;;3.72;;
10056;SDS011;5068;51.286;7.518;2023-11-21T02:04:23;7.68;;;3.88;;
10056;SDS011;5068;51.286;7.518;2023-11-21T02:05:56;8.40;;;4.93;;
10056;SDS011;5068;51.286;7.518;2023-11-21T02:07:30;8.52;;;3.83;;
10056;SDS011;5068;51.286;7.518;2023-11-21T02:09:04;6.40;;;3.30;;
10056;SDS011;5068;51.286;7.518;2023-11-21T02:10:37;9.18;;;3.63;;
10056;SDS011;5068;51.286;7.518;2023-11-21T02:12:10;9.00;;;3.60;;
10056;SDS011;5068;51.286;7.518;2023-11-21T02:13:43;7.15;;;3.50;;
10056;SDS011;5068;51.286;7.518;2023-11-21T02:15:18;7.35;;;3.97;;
10056;SDS011;5068;51.286;7.518;2023-11-21T02:16:53;8.25;;;3.67;;
10056;SDS011;5068;51.286;7.518;2023-11-21T02:18:28;5.95;;;3.38;;
10056;SDS011;5068;51.286;7.518;2023-11-21T02:20:01;8.90;;;3.58;;
10056;SDS011;5068;51.286;7.518;2023-11-21T02:21:43;6.18;;;3.70;;
10056;SDS011;5068;51.286;7.518;2023-11-21T02:23:18;7.80;;;3.63;;
10056;SDS011;5068;51.286;7.518;2023-11-21T02:24:51;6.90;;;3.40;;
10056;SDS011;5068;51.286;7.518;2023-11-21T02:26:24;7.63;;;3.58;;
10056;SDS011;5068;51.286;7.518;2023-11-21T02:27:57;7.85;;;3.33;;
10056;SDS011;5068;51.286;7.518;2023-11-21T02:29:32;5.65;;;3.05;;
10056;SDS011;5068;51.286;7.518;2023-11-21T02:31:05;6.55;;;3.40;;
10056;SDS011;5068;51.286;7.518;2023-11-21T02:32:39;5.85;;;3.55;;
10056;SDS011;5068;51.286;7.518;2023-11-21T02:34:20;7.18;;;3.40;;
10056;SDS011;5068;51.286;7.518;2023-11-21T02:35:54;8.23;;;3.53;;
10056;SDS011;5068;51.286;7.518;2023-11-21T02:37:27;8.93;;;3.90;;
10056;SDS011;5068;51.286;7.518;2023-11-21T02:39:01;6.75;;;3.65;;
10056;SDS011;5068;51.286;7.518;2023-11-21T02:40:34;7.03;;;3.30;;
10056;SDS011;5068;51.286;7.518;2023-11-21T02:42:07;7.68;;;3.20;;
10056;SDS011;5068;51.286;7.518;2023-11-21T02:43:39;6.55;;;3.20;;
10056;SDS011;5068;51.286;7.518;2023-11-21T02:45:13;6.13;;;3.50;;
10056;SDS011;5068;51.286;7.518;2023-11-21T02:46:48;6.25;;;3.50;;
10056;SDS011;5068;51.286;7.518;2023-11-21T02:48:22;6.00;;;3.28;;
10056;SDS011;5068;51.286;7.518;2023-11-21T02:49:57;10.63;;;3.67;;
10056;SDS011;5068;51.286;7.518;2023-11-21T02:51:32;6.75;;;3.65;;
10056;SDS011;5068;51.286;7.518;2023-11-21T02:53:04;5.55;;;2.92;;
10056;SDS011;5068;51.286;7.518;2023-11-21T02:54:39;6.78;;;3.58;;
10056;SDS011;5068;51.286;7.518;2023-11-21T02:56:11;5.30;;;2.97;;
10056;SDS011;5068;51.286;7.518;2023-11-21T02:57:46;5.45;;;3.25;;
10056;SDS011;5068;51.286;7.518;2023-11-21T02:59:18;7.25;;;3.13;;
10056;SDS011;5068;51.286;7.518;2023-11-21T03:00:51;6.45;;;3.10;;
10056;SDS011;5068;51.286;7.518;2023-11-21T03:02:25;11.80;;;3.53;;
10056;SDS011;5068;51.286;7.518;2023-11-21T03:03:58;5.32;;;3.42;;
10056;SDS011;5068;51.286;7.518;2023-11-21T03:05:31;6.40;;;3.10;;
10056;SDS011;5068;51.286;7.518;2023-11-21T03:07:06;7.13;;;3.13;;
10056;SDS011;5068;51.286;7.518;2023-11-21T03:08:39;5.28;;;3.00;;
10056;SDS011;5068;51.286;7.518;2023-11-21T03:10:15;5.88;;;3.20;;
10056;SDS011;5068;51.286;7.518;2023-11-21T03:11:47;7.93;;;3.05;;
10056;SDS011;5068;51.286;7.518;2023-11-21T03:13:21;6.63;;;3.28;;
10056;SDS011;5068;51.286;7.518;2023-11-21T03:14:53;6.15;;;3.42;;
10056;SDS011;5068;51.286;7.518;2023-11-21T03:16:26;5.05;;;2.90;;
10056;SDS011;5068;51.286;7.518;2023-11-21T03:17:58;7.53;;;3.30;;
10056;SDS011;5068;51.286;7.518;2023-11-21T03:19:32;8.15;;;3.75;;
10056;SDS011;5068;51.286;7.518;2023-11-21T03:21:05;7.75;;;4.10;;
10056;SDS011;5068;51.286;7.518;2023-11-21T03:22:40;7.68;;;3.28;;
10056;SDS011;5068;51.286;7.518;2023-11-21T03:24:12;9.23;;;3.72;;
10056;SDS011;5068;51.286;7.518;2023-11-21T03:25:50;9.40;;;3.33;;
10056;SDS011;5068;51.286;7.518;2023-11-21T03:27:22;6.32;;;3.05;;
10056;SDS011;5068;51.286;7.518;2023-11-21T03:28:56;6.20;;;3.60;;
10056;SDS011;5068;51.286;7.518;2023-11-21T03:30:28;5.60;;;3.38;;
10056;SDS011;5068;51.286;7.518;2023-11-21T03:32:02;6.45;;;3.15;;
10056;SDS011;5068;51.286;7.518;2023-11-21T03:33:35;5.78;;;2.85;;
10056;SDS011;5068;51.286;7.518;2023-11-21T03:35:09;5.88;;;2.90;;
10056;SDS011;5068;51.286;7.518;2023-11-21T03:36:41;5.82;;;3.03;;
10056;SDS011;5068;51.286;7.518;2023-11-21T03:38:15;5.55;;;2.80;;
10056;SDS011;5068;51.286;7.518;2023-11-21T03:39:47;8.40;;;2.78;;
10056;SDS011;5068;51.286;7.518;2023-11-21T03:41:22;4.60;;;3.20;;
10056;SDS011;5068;51.286;7.518;2023-11-21T03:42:54;7.32;;;2.80;;
10056;SDS011;5068;51.286;7.518;2023-11-21T03:44:27;11.02;;;3.53;;
10056;SDS011;5068;51.286;7.518;2023-11-21T03:45:59;5.97;;;3.00;;
10056;SDS011;5068;51.286;7.518;2023-11-21T03:47:33;11.88;;;3.17;;
10056;SDS011;5068;51.286;7.518;2023-11-21T03:49:05;5.97;;;2.90;;
10056;SDS011;5068;51.286;7.518;2023-11-21T03:50:39;4.47;;;2.90;;
10056;SDS011;5068;51.286;7.518;2023-11-21T03:52:11;5.50;;;2.88;;
10056;SDS011;5068;51.286;7.518;2023-11-21T03:53:44;4.88;;;2.65;;
10056;SDS011;5068;51.286;7.518;2023-11-21T03:55:16;5.80;;;2.90;;
10056;SDS011;5068;51.286;7.518;2023-11-21T03:56:51;4.80;;;2.78;;
10056;SDS011;5068;51.286;7.518;2023-11-21T03:58:23;5.60;;;2.75;;
10056;SDS011;5068;51.286;7.518;2023-11-21T03:59:57;5.50;;;2.80;;
10056;SDS011;5068;51.286;7.518;2023-11-21T04:01:29;6.32;;;2.85;;
10056;SDS011;5068;51.286;7.518;2023-11-21T04:03:02;6.07;;;2.80;;
10056;SDS011;5068;51.286;7.518;2023-11-21T04:04:35;6.63;;;3.03;;
10056;SDS011;5068;51.286;7.518;2023-11-21T04:06:08;6.80;;;2.63;;
10056;SDS011;5068;51.286;7.518;2023-11-21T04:07:41;6.03;;;2.53;;
10056;SDS011;5068;51.286;7.518;2023-11-21T04:09:14;6.55;;;3.42;;
10056;SDS011;5068;51.286;7.518;2023-11-21T04:10:47;4.55;;;2.97;;
10056;SDS011;5068;51.286;7.518;2023-11-21T04:12:22;4.90;;;2.92;;
10056;SDS011;5068;51.286;7.518;2023-11-21T04:13:54;6.63;;;2.90;;
10056;SDS011;5068;51.286;7.518;2023-11-21T04:15:28;5.05;;;2.92;;
10056;SDS011;5068;51.286;7.518;2023-11-21T04:17:00;5.78;;;2.80;;
10056;SDS011;5068;51.286;7.518;2023-11-21T04:18:35;4.82;;;2.63;;
10056;SDS011;5068;51.286;7.518;2023-11-21T04:20:08;5.13;;;2.45;;
10056;SDS011;5068;51.286;7.518;2023-11-21T04:21:42;6.78;;;3.05;;
10056;SDS011;5068;51.286;7.518;2023-11-21T04:23:15;5.03;;;2.80;;
10056;SDS011;5068;51.286;7.518;2023-11-21T04:24:48;5.00;;;2.40;;
10056;SDS011;5068;51.286;7.518;2023-11-21T04:26:21;5.47;;;2.95;;
10056;SDS011;5068;51.286;7.518;2023-11-21T04:27:55;6.07;;;3.03;;
10056;SDS011;5068;51.286;7.518;2023-11-21T04:29:27;6.30;;;2.60;;
10056;SDS011;5068;51.286;7.518;2023-11-21T04:31:01;4.70;;;2.50;;
10056;SDS011;5068;51.286;7.518;2023-11-21T04:32:33;6.00;;;2.90;;
10056;SDS011;5068;51.286;7.518;2023-11-21T04:34:07;6.82;;;3.13;;
10056;SDS011;5068;51.286;7.518;2023-11-21T04:35:39;5.45;;;2.33;;
10056;SDS011;5068;51.286;7.518;2023-11-21T04:37:12;6.22;;;3.20;;
10056;SDS011;5068;51.286;7.518;2023-11-21T04:38:45;6.53;;;2.78;;
10056;SDS011;5068;51.286;7.518;2023-11-21T04:40:18;5.57;;;2.40;;
10056;SDS011;5068;51.286;7.518;2023-11-21T04:41:52;5.93;;;2.17;;
10056;SDS011;5068;51.286;7.518;2023-11-21T04:43:25;7.82;;;2.80;;
10056;SDS011;5068;51.286;7.518;2023-11-21T04:44:59;5.20;;;2.60;;
10056;SDS011;5068;51.286;7.518;2023-11-21T04:46:32;6.20;;;2.72;;
10056;SDS011;5068;51.286;7.518;2023-11-21T04:48:06;6.68;;;2.88;;
10056;SDS011;5068;51.286;7.518;2023-11-21T04:49:41;8.30;;;3.00;;
10056;SDS011;5068;51.286;7.518;2023-11-21T04:51:15;5.65;;;2.80;;
10056;SDS011;5068;51.286;7.518;2023-11-21T04:52:47;6.65;;;2.78;;
10056;SDS011;5068;51.286;7.518;2023-11-21T04:54:20;3.90;;;2.40;;
10056;SDS011;5068;51.286;7.518;2023-11-21T04:55:56;4.85;;;2.60;;
10056;SDS011;5068;51.286;7.518;2023-11-21T04:57:30;5.45;;;2.22;;
10056;SDS011;5068;51.286;7.518;2023-11-21T04:59:05;5.35;;;2.20;;
10056;SDS011;5068;51.286;7.518;2023-11-21T05:00:37;7.65;;;2.67;;
10056;SDS011;5068;51.286;7.518;2023-11-21T05:02:10;4.70;;;2.60;;
10056;SDS011;5068;51.286;7.518;2023-11-21T05:04:04;5.78;;;2.60;;
10056;SDS011;5068;51.286;7.518;2023-11-21T05:05:40;4.55;;;2.47;;
10056;SDS011;5068;51.286;7.518;2023-11-21T05:07:13;6.65;;;2.38;;
10056;SDS011;5068;51.286;7.518;2023-11-21T05:08:47;4.78;;;2.60;;
10056;SDS011;5068;51.286;7.518;2023-11-21T05:10:21;4.00;;;2.03;;
10056;SDS011;5068;51.286;7.518;2023-11-21T05:11:54;5.72;;;2.60;;
10056;SDS011;5068;51.286;7.518;2023-11-21T05:13:27;6.93;;;3.03;;
10056;SDS011;5068;51.286;7.518;2023-11-21T05:15:01;5.07;;;2.50;;
10056;SDS011;5068;51.286;7.518;2023-11-21T05:16:39;7.93;;;2.97;;
10056;SDS011;5068;51.286;7.518;2023-11-21T05:18:12;4.95;;;2.20;;
10056;SDS011;5068;51.286;7.518;2023-11-21T05:19:45;4.50;;;2.75;;
10056;SDS011;5068;51.286;7.518;2023-11-21T05:21:21;8.98;;;2.50;;
10056;SDS011;5068;51.286;7.518;2023-11-21T05:22:53;5.78;;;2.58;;
10056;SDS011;5068;51.286;7.518;2023-11-21T05:24:26;5.60;;;2.63;;
10056;SDS011;5068;51.286;7.518;2023-11-21T05:26:00;6.70;;;3.33;;
10056;SDS011;5068;51.286;7.518;2023-11-21T05:27:33;5.60;;;2.60;;
10056;SDS011;5068;51.286;7.518;2023-11-21T05:29:06;6.07;;;2.97;;
10056;SDS011;5068;51.286;7.518;2023-11-21T05:30:41;5.95;;;2.88;;
10056;SDS011;5068;51.286;7.518;2023-11-21T05:32:14;6.32;;;2.97;;
10056;SDS011;5068;51.286;7.518;2023-11-21T05:33:48;7.00;;;2.92;;
10056;SDS011;5068;51.286;7.518;2023-11-21T05:35:22;7.30;;;3.17;;
10056;SDS011;5068;51.286;7.518;2023-11-21T05:36:54;5.13;;;2.97;;
10056;SDS011;5068;51.286;7.518;2023-11-21T05:38:29;6.00;;;2.83;;
10056;SDS011;5068;51.286;7.518;2023-11-21T05:40:03;7.22;;;3.58;;
10056;SDS011;5068;51.286;7.518;2023-11-21T05:41:37;6.90;;;3.92;;
10056;SDS011;5068;51.286;7.518;2023-11-21T05:43:11;8.23;;;4.15;;
10056;SDS011;5068;51.286;7.518;2023-11-21T05:44:43;6.82;;;4.07;;
10056;SDS011;5068;51.286;7.518;2023-11-21T05:46:18;10.38;;;4.57;;
10056;SDS011;5068;51.286;7.518;2023-11-21T05:47:51;9.23;;;4.45;;
10056;SDS011;5068;51.286;7.518;2023-11-21T05:49:23;8.25;;;4.53;;
10056;SDS011;5068;51.286;7.518;2023-11-21T05:50:57;7.45;;;4.82;;
10056;SDS011;5068;51.286;7.518;2023-11-21T05:52:33;6.80;;;4.53;;
10056;SDS011;5068;51.286;7.518;2023-11-21T05:54:05;7.32;;;4.20;;
10056;SDS011;5068;51.286;7.518;2023-11-21T05:55:39;4.65;;;3.00;;
10056;SDS011;5068;51.286;7.518;2023-11-21T05:57:12;5.38;;;3.30;;
10056;SDS011;5068;51.286;7.518;2023-11-21T05:58:45;6.53;;;3.20;;
10056;SDS011;5068;51.286;7.518;2023-11-21T06:00:18;5.32;;;2.92;;
10056;SDS011;5068;51.286;7.518;2023-11-21T06:01:54;5.38;;;3.20;;
10056;SDS011;5068;51.286;7.518;2023-11-21T06:03:28;9.57;;;3.13;;
10056;SDS011;5068;51.286;7.518;2023-11-21T06:05:00;6.60;;;2.90;;
10056;SDS011;5068;51.286;7.518;2023-11-21T06:06:35;6.05;;;2.70;;
10056;SDS011;5068;51.286;7.518;2023-11-21T06:08:09;5.75;;;2.90;;
10056;SDS011;5068;51.286;7.518;2023-11-21T06:09:42;4.22;;;2.38;;
10056;SDS011;5068;51.286;7.518;2023-11-21T06:11:16;4.78;;;2.78;;
10056;SDS011;5068;51.286;7.518;2023-11-21T06:12:48;5.15;;;3.15;;
10056;SDS011;5068;51.286;7.518;2023-11-21T06:14:22;8.18;;;2.97;;
10056;SDS011;5068;51.286;7.518;2023-11-21T06:15:54;6.38;;;2.55;;
10056;SDS011;5068;51.286;7.518;2023-11-21T06:17:29;5.95;;;2.88;;
10056;SDS011;5068;51.286;7.518;2023-11-21T06:19:01;5.05;;;2.30;;
10056;SDS011;5068;51.286;7.518;2023-11-21T06:20:35;6.35;;;2.42;;
10056;SDS011;5068;51.286;7.518;2023-11-21T06:22:09;5.68;;;3.20;;
10056;SDS011;5068;51.286;7.518;2023-11-21T06:23:42;4.53;;;2.47;;
10056;SDS011;5068;51.286;7.518;2023-11-21T06:25:15;5.82;;;2.63;;
10056;SDS011;5068;51.286;7.518;2023-11-21T06:26:48;4.30;;;2.42;;
10056;SDS011;5068;51.286;7.518;2023-11-21T06:28:21;5.07;;;2.10;;
10056;SDS011;5068;51.286;7.518;2023-11-21T06:29:54;5.97;;;2.75;;
10056;SDS011;5068;51.286;7.518;2023-11-21T06:31:27;6.68;;;2.75;;
10056;SDS011;5068;51.286;7.518;2023-11-21T06:33:02;5.57;;;2.60;;
10056;SDS011;5068;51.286;7.518;2023-11-21T06:34:35;4.65;;;2.33;;
10056;SDS011;5068;51.286;7.518;2023-11-21T06:36:08;6.13;;;2.60;;
10056;SDS011;5068;51.286;7.518;2023-11-21T06:37:42;4.65;;;2.40;;
10056;SDS011;5068;51.286;7.518;2023-11-21T06:39:19;4.97;;;2.17;;
10056;SDS011;5068;51.286;7.518;2023-11-21T06:42:27;7.50;;;2.72;;
10056;SDS011;5068;51.286;7.518;2023-11-21T06:44:01;4.03;;;2.15;;
10056;SDS011;5068;51.286;7.518;2023-11-21T06:45:36;7.63;;;2.15;;
10056;SDS011;5068;51.286;7.518;2023-11-21T06:47:09;6.45;;;2.50;;
10056;SDS011;5068;51.286;7.518;2023-11-21T06:48:43;5.28;;;2.38;;
10056;SDS011;5068;51.286;7.518;2023-11-21T06:50:17;7.18;;;2.75;;
10056;SDS011;5068;51.286;7.518;2023-11-21T06:51:49;5.97;;;2.50;;
10056;SDS011;5068;51.286;7.518;2023-11-21T06:53:22;6.18;;;2.47;;
10056;SDS011;5068;51.286;7.518;2023-11-21T06:54:56;6.43;;;2.63;;
10056;SDS011;5068;51.286;7.518;2023-11-21T06:56:29;6.03;;;2.97;;
10056;SDS011;5068;51.286;7.518;2023-11-21T06:58:02;4.75;;;2.28;;
10056;SDS011;5068;51.286;7.518;2023-11-21T06:59:36;5.60;;;2.47;;
10056;SDS011;5068;51.286;7.518;2023-11-21T07:01:09;6.78;;;2.58;;
10056;SDS011;5068;51.286;7.518;2023-11-21T07:02:42;9.05;;;3.10;;
10056;SDS011;5068;51.286;7.518;2023-11-21T07:04:16;4.80;;;2.17;;
10056;SDS011;5068;51.286;7.518;2023-11-21T07:05:50;5.05;;;2.42;;
10056;SDS011;5068;51.286;7.518;2023-11-21T07:07:23;4.78;;;2.63;;
10056;SDS011;5068;51.286;7.518;2023-11-21T07:08:55;4.70;;;2.17;;
10056;SDS011;5068;51.286;7.518;2023-11-21T07:10:30;5.00;;;2.50;;
10056;SDS011;5068;51.286;7.518;2023-11-21T07:12:03;5.57;;;2.13;;
10056;SDS011;5068;51.286;7.518;2023-11-21T07:13:38;4.63;;;2.60;;
10056;SDS011;5068;51.286;7.518;2023-11-21T07:15:11;5.72;;;2.28;;
10056;SDS011;5068;51.286;7.518;2023-11-21T07:16:44;8.20;;;3.05;;
10056;SDS011;5068;51.286;7.518;2023-11-21T07:18:16;6.88;;;2.70;;
10056;SDS011;5068;51.286;7.518;2023-11-21T07:19:51;6.05;;;3.13;;
10056;SDS011;5068;51.286;7.518;2023-11-21T07:21:23;3.65;;;2.22;;
10056;SDS011;5068;51.286;7.518;2023-11-21T07:22:57;7.60;;;3.33;;
10056;SDS011;5068;51.286;7.518;2023-11-21T07:24:29;5.80;;;2.88;;
10056;SDS011;5068;51.286;7.518;2023-11-21T07:26:03;4.90;;;2.90;;
10056;SDS011;5068;51.286;7.518;2023-11-21T07:27:40;4.97;;;2.80;;
10056;SDS011;5068;51.286;7.518;2023-11-21T07:29:13;8.65;;;3.33;;
10056;SDS011;5068;51.286;7.518;2023-11-21T07:30:45;6.85;;;2.90;;
10056;SDS011;5068;51.286;7.518;2023-11-21T07:32:19;5.88;;;3.13;;
10056;SDS011;5068;51.286;7.518;2023-11-21T07:33:52;6.05;;;2.75;;
10056;SDS011;5068;51.286;7.518;2023-11-21T07:35:27;7.22;;;3.03;;
10056;SDS011;5068;51.286;7.518;2023-11-21T07:37:00;6.50;;;2.70;;
10056;SDS011;5068;51.286;7.518;2023-11-21T07:38:33;7.15;;;2.78;;
10056;SDS011;5068;51.286;7.518;2023-11-21T07:40:06;5.57;;;2.65;;
10056;SDS011;5068;51.286;7.518;2023-11-21T07:41:40;5.53;;;2.80;;
10056;SDS011;5068;51.286;7.518;2023-11-21T07:43:19;5.30;;;2.78;;
10056;SDS011;5068;51.286;7.518;2023-11-21T07:44:52;4.47;;;2.33;;
10056;SDS011;5068;51.286;7.518;2023-11-21T07:46:25;8.18;;;3.00;;
10056;SDS011;5068;51.286;7.518;2023-11-21T07:47:58;5.75;;;2.53;;
10056;SDS011;5068;51.286;7.518;2023-11-21T07:49:32;5.10;;;2.30;;
10056;SDS011;5068;51.286;7.518;2023-11-21T07:51:06;6.45;;;2.42;;
10056;SDS011;5068;51.286;7.518;2023-11-21T07:52:39;7.03;;;2.50;;
10056;SDS011;5068;51.286;7.518;2023-11-21T07:54:12;6.72;;;2.65;;
10056;SDS011;5068;51.286;7.518;2023-11-21T07:55:45;6.43;;;2.60;;
10056;SDS011;5068;51.286;7.518;2023-11-21T07:57:18;5.90;;;2.65;;
10056;SDS011;5068;51.286;7.518;2023-11-21T07:58:51;9.38;;;2.72;;
10056;SDS011;5068;51.286;7.518;2023-11-21T08:00:25;7.53;;;3.25;;
10056;SDS011;5068;51.286;7.518;2023-11-21T08:02:01;6.10;;;2.72;;
10056;SDS011;5068;51.286;7.518;2023-11-21T08:03:34;5.45;;;2.70;;
10056;SDS011;5068;51.286;7.518;2023-11-21T08:05:07;6.45;;;2.92;;
10056;SDS011;5068;51.286;7.518;2023-11-21T08:06:53;6.85;;;2.90;;
10056;SDS011;5068;51.286;7.518;2023-11-21T08:08:27;4.97;;;2.92;;
10056;SDS011;5068;51.286;7.518;2023-11-21T08:10:00;8.48;;;3.38;;
10056;SDS011;5068;51.286;7.518;2023-11-21T08:11:33;5.38;;;3.00;;
10056;SDS011;5068;51.286;7.518;2023-11-21T08:13:06;9.55;;;3.10;;
10056;SDS011;5068;51.286;7.518;2023-11-21T08:14:40;7.18;;;3.17;;
10056;SDS011;5068;51.286;7.518;2023-11-21T08:16:14;6.78;;;2.97;;
10056;SDS011;5068;51.286;7.518;2023-11-21T08:17:48;8.18;;;3.10;;
10056;SDS011;5068;51.286;7.518;2023-11-21T08:19:21;7.78;;;3.53;;
10056;SDS011;5068;51.286;7.518;2023-11-21T08:20:56;8.55;;;3.83;;
10056;SDS011;5068;51.286;7.518;2023-11-21T08:22:31;6.97;;;3.92;;
10056;SDS011;5068;51.286;7.518;2023-11-21T08:24:04;8.55;;;4.32;;
10056;SDS011;5068;51.286;7.518;2023-11-21T08:25:42;7.30;;;3.33;;
10056;SDS011;5068;51.286;7.518;2023-11-21T08:27:15;6.15;;;2.83;;
10056;SDS011;5068;51.286;7.518;2023-11-21T08:28:48;5.57;;;3.03;;
10056;SDS011;5068;51.286;7.518;2023-11-21T08:30:21;8.10;;;3.58;;
10056;SDS011;5068;51.286;7.518;2023-11-21T08:31:55;8.52;;;3.58;;
10056;SDS011;5068;51.286;7.518;2023-11-21T08:33:28;5.35;;;3.22;;
10056;SDS011;5068;51.286;7.518;2023-11-21T08:35:01;6.63;;;3.20;;
10056;SDS011;5068;51.286;7.518;2023-11-21T08:36:34;8.07;;;3.55;;
10056;SDS011;5068;51.286;7.518;2023-11-21T08:38:09;8.43;;;3.70;;
10056;SDS011;5068;51.286;7.518;2023-11-21T08:39:41;7.47;;;3.97;;
10056;SDS011;5068;51.286;7.518;2023-11-21T08:41:16;6.50;;;3.58;;
10056;SDS011;5068;51.286;7.518;2023-11-21T08:42:48;7.78;;;4.10;;
10056;SDS011;5068;51.286;7.518;2023-11-21T08:44:23;7.20;;;3.58;;
10056;SDS011;5068;51.286;7.518;2023-11-21T08:45:56;7.47;;;3.35;;
10056;SDS011;5068;51.286;7.518;2023-11-21T08:47:29;9.57;;;3.80;;
10056;SDS011;5068;51.286;7.518;2023-11-21T08:49:01;6.63;;;3.65;;
10056;SDS011;5068;51.286;7.518;2023-11-21T08:50:36;6.32;;;3.72;;
10056;SDS011;5068;51.286;7.518;2023-11-21T08:52:09;9.65;;;3.88;;
10056;SDS011;5068;51.286;7.518;2023-11-21T08:53:43;7.47;;;3.65;;
10056;SDS011;5068;51.286;7.518;2023-11-21T08:55:16;9.88;;;3.67;;
10056;SDS011;5068;51.286;7.518;2023-11-21T08:56:48;7.25;;;4.05;;
10056;SDS011;5068;51.286;7.518;2023-11-21T08:58:22;7.03;;;3.97;;
10056;SDS011;5068;51.286;7.518;2023-11-21T08:59:54;7.20;;;3.55;;
10056;SDS011;5068;51.286;7.518;2023-11-21T09:01:27;8.48;;;4.28;;
10056;SDS011;5068;51.286;7.518;2023-11-21T09:03:00;8.10;;;4.22;;
10056;SDS011;5068;51.286;7.518;2023-11-21T09:04:35;10.30;;;3.95;;
10056;SDS011;5068;51.286;7.518;2023-11-21T09:06:11;6.85;;;3.88;;
10056;SDS011;5068;51.286;7.518;2023-11-21T09:07:43;9.82;;;4.60;;
10056;SDS011;5068;51.286;7.518;2023-11-21T09:09:21;9.02;;;4.65;;
10056;SDS011;5068;51.286;7.518;2023-11-21T09:10:56;9.38;;;4.47;;
10056;SDS011;5068;51.286;7.518;2023-11-21T09:12:29;9.82;;;4.82;;
10056;SDS011;5068;51.286;7.518;2023-11-21T09:14:03;13.35;;;5.38;;
10056;SDS011;5068;51.286;7.518;2023-11-21T09:15:37;9.68;;;4.80;;
10056;SDS011;5068;51.286;7.518;2023-11-21T09:17:09;9.32;;;4.55;;
10056;SDS011;5068;51.286;7.518;2023-11-21T09:18:43;11.20;;;4.75;;
10056;SDS011;5068;51.286;7.518;2023-11-21T09:20:16;8.63;;;4.30;;
10056;SDS011;5068;51.286;7.518;2023-11-21T09:21:52;9.52;;;4.57;;
10056;SDS011;5068;51.286;7.518;2023-11-21T09:23:25;16.83;;;6.30;;
10056;SDS011;5068;51.286;7.518;2023-11-21T09:24:59;15.25;;;6.38;;
10056;SDS011;5068;51.286;7.518;2023-11-21T09:26:31;15.57;;;7.07;;
10056;SDS011;5068;51.286;7.518;2023-11-21T09:28:06;18.73;;;6.72;;
10056;SDS011;5068;51.286;7.518;2023-11-21T09:29:39;14.93;;;6.15;;
10056;SDS011;5068;51.286;7.518;2023-11-21T09:31:13;13.25;;;5.75;;
10056;SDS011;5068;51.286;7.518;2023-11-21T09:32:47;12.27;;;5.50;;
10056;SDS011;5068;51.286;7.518;2023-11-21T09:34:20;11.68;;;5.90;;
10056;SDS011;5068;51.286;7.518;2023-11-21T09:35:53;11.23;;;5.90;;
10056;SDS011;5068;51.286;7.518;2023-11-21T09:37:26;13.27;;;5.85;;